createdAt,value
2023-03-13T00:01:24.624Z,-1.50
2023-03-13T00:03:51.727Z,-1.50
2023-03-13T00:06:19.224Z,-1.70
2023-03-13T00:08:46.313Z,-1.70
2023-03-13T00:11:14.489Z,-1.80
2023-03-13T00:13:42.914Z,-1.80
2023-03-13T00:16:13.124Z,-1.80
2023-03-13T00:18:44.487Z,-1.90
2023-03-13T00:21:11.418Z,-1.90
2023-03-13T00:23:39.070Z,-1.90
2023-03-13T00:26:08.483Z,-1.90
2023-03-13T00:28:36.690Z,-1.90
2023-03-13T00:31:09.309Z,-1.80
2023-03-13T00:33:37.885Z,-1.70
2023-03-13T00:36:08.045Z,-1.70
2023-03-13T00:38:35.324Z,-1.60
2023-03-13T00:41:13.614Z,-1.50
2023-03-13T00:43:42.511Z,-1.50
2023-03-13T00:46:10.318Z,-1.40
2023-03-13T00:48:37.672Z,-1.40
2023-03-13T00:51:05.442Z,-1.30
2023-03-13T00:53:32.664Z,-1.30
2023-03-13T00:56:13.754Z,-1.30
2023-03-13T00:58:42.461Z,-1.20
2023-03-13T01:01:13.956Z,-1.20
2023-03-13T01:03:42.904Z,-1.20
2023-03-13T01:06:13.983Z,-1.20
2023-03-13T01:08:41.141Z,-1.10
2023-03-13T01:11:10.907Z,-1.10
2023-03-13T01:13:38.419Z,-1.10
2023-03-13T01:16:08.719Z,-1.00
2023-03-13T01:18:37.065Z,-1.00
2023-03-13T01:21:05.123Z,-1.00
2023-03-13T01:23:32.482Z,-1.00
2023-03-13T01:25:59.529Z,-1.00
2023-03-13T01:28:27.078Z,-0.90
2023-03-13T01:30:54.400Z,-0.90
2023-03-13T01:33:21.715Z,-0.80
2023-03-13T01:35:49.056Z,-0.80
2023-03-13T01:38:16.104Z,-0.80
2023-03-13T01:40:48.528Z,-0.80
2023-03-13T01:43:30.451Z,-0.70
2023-03-13T01:46:05.661Z,-0.70
2023-03-13T01:48:35.721Z,-0.70
2023-03-13T01:51:05.969Z,-0.70
2023-03-13T01:53:36.477Z,-0.70
2023-03-13T01:56:08.012Z,-0.70
2023-03-13T01:58:35.997Z,-0.70
2023-03-13T02:01:04.030Z,-0.70
2023-03-13T02:03:31.368Z,-0.60
2023-03-13T02:06:00.828Z,-0.60
2023-03-13T02:08:37.505Z,-0.50
2023-03-13T02:11:22.143Z,-0.50
2023-03-13T02:13:51.023Z,-0.50
2023-03-13T02:16:19.286Z,-0.50
2023-03-13T02:18:47.367Z,-0.40
2023-03-13T02:21:31.049Z,-0.40
2023-03-13T02:24:08.694Z,-0.40
2023-03-13T02:26:35.792Z,-0.40
2023-03-13T02:29:02.680Z,-0.40
2023-03-13T02:31:30.902Z,-0.30
2023-03-13T02:34:02.158Z,-0.30
2023-03-13T02:36:30.694Z,-0.30
2023-03-13T02:39:02.971Z,-0.30
2023-03-13T02:41:31.539Z,-0.20
2023-03-13T02:43:58.422Z,-0.30
2023-03-13T02:46:25.508Z,-0.20
2023-03-13T02:48:55.466Z,-0.20
2023-03-13T02:51:42.410Z,-0.20
2023-03-13T02:54:14.901Z,-0.20
2023-03-13T02:56:45.635Z,-0.20
2023-03-13T02:59:12.556Z,-0.20
2023-03-13T03:01:39.502Z,-0.20
2023-03-13T03:04:06.512Z,-0.20
2023-03-13T03:06:33.632Z,-0.20
2023-03-13T03:09:00.544Z,-0.10
2023-03-13T03:11:27.489Z,-0.20
2023-03-13T03:13:54.694Z,-0.20
2023-03-13T03:16:21.650Z,-0.10
2023-03-13T03:18:48.878Z,-0.20
2023-03-13T03:21:15.869Z,-0.20
2023-03-13T03:23:42.723Z,-0.20
2023-03-13T03:26:09.882Z,-0.20
2023-03-13T03:28:36.807Z,-0.20
2023-03-13T03:31:08.939Z,-0.20
2023-03-13T03:33:35.966Z,-0.10
2023-03-13T03:36:05.417Z,-0.20
2023-03-13T03:38:33.440Z,-0.10
2023-03-13T03:41:00.643Z,0.00
2023-03-13T03:43:27.838Z,0.00
2023-03-13T03:45:54.834Z,0.00
2023-03-13T03:48:21.930Z,0.10
2023-03-13T03:50:48.930Z,0.10
2023-03-13T03:53:15.880Z,0.20
2023-03-13T03:55:43.004Z,0.20
2023-03-13T03:58:10.008Z,0.20
2023-03-13T04:00:36.915Z,0.20
2023-03-13T04:03:03.989Z,0.20
2023-03-13T04:05:30.911Z,0.10
2023-03-13T04:07:57.829Z,0.20
2023-03-13T04:10:24.780Z,0.20
2023-03-13T04:12:51.657Z,0.20
2023-03-13T04:15:18.818Z,0.30
2023-03-13T04:17:45.716Z,0.30
2023-03-13T04:20:14.555Z,0.30
2023-03-13T04:22:42.527Z,0.30
2023-03-13T04:25:10.316Z,0.30
2023-03-13T04:27:37.596Z,0.40
2023-03-13T04:30:05.216Z,0.40
2023-03-13T04:32:32.191Z,0.40
2023-03-13T04:34:59.185Z,0.40
2023-03-13T04:37:26.120Z,0.40
2023-03-13T04:39:53.195Z,0.40
2023-03-13T04:42:20.128Z,0.40
2023-03-13T04:44:47.247Z,0.50
2023-03-13T04:47:14.205Z,0.50
2023-03-13T04:49:41.095Z,0.60
2023-03-13T04:52:08.012Z,0.60
2023-03-13T04:54:34.967Z,0.60
2023-03-13T04:57:01.969Z,0.60
2023-03-13T04:59:29.204Z,0.60
2023-03-13T05:01:56.195Z,0.60
2023-03-13T05:04:23.179Z,0.60
2023-03-13T05:06:50.091Z,0.60
2023-03-13T05:09:17.132Z,0.70
2023-03-13T05:11:44.204Z,0.70
2023-03-13T05:14:11.698Z,0.70
2023-03-13T05:16:39.302Z,0.70
2023-03-13T05:19:06.325Z,0.80
2023-03-13T05:21:33.442Z,0.80
2023-03-13T05:24:00.340Z,0.80
2023-03-13T05:26:27.312Z,0.90
2023-03-13T05:28:54.255Z,1.00
2023-03-13T05:31:21.280Z,1.00
2023-03-13T05:33:48.190Z,1.10
2023-03-13T05:36:15.154Z,1.10
2023-03-13T05:38:42.184Z,1.10
2023-03-13T05:41:09.137Z,1.20
2023-03-13T05:43:36.029Z,1.20
2023-03-13T05:46:03.022Z,1.20
2023-03-13T05:48:29.983Z,1.30
2023-03-13T05:50:57.195Z,1.30
2023-03-13T05:53:24.238Z,1.30
2023-03-13T05:55:51.158Z,1.40
2023-03-13T05:58:18.078Z,1.40
2023-03-13T06:00:45.062Z,1.50
2023-03-13T06:03:14.222Z,1.50
2023-03-13T06:05:41.420Z,1.50
2023-03-13T06:08:08.377Z,1.60
2023-03-13T06:10:35.316Z,1.60
2023-03-13T06:13:17.188Z,1.70
2023-03-13T06:15:57.018Z,1.80
2023-03-13T06:18:24.831Z,1.90
2023-03-13T06:21:00.526Z,1.90
2023-03-13T06:23:27.919Z,1.90
2023-03-13T06:25:55.584Z,2.10
2023-03-13T06:28:22.553Z,2.00
2023-03-13T06:30:49.488Z,2.10
2023-03-13T06:33:16.548Z,2.10
2023-03-13T06:35:55.550Z,2.10
2023-03-13T06:38:24.146Z,2.20
2023-03-13T06:40:51.109Z,2.20
2023-03-13T06:43:18.070Z,2.30
2023-03-13T06:45:45.066Z,2.30
2023-03-13T06:48:12.072Z,2.30
2023-03-13T06:50:39.721Z,2.40
2023-03-13T06:53:06.710Z,2.40
2023-03-13T06:55:33.847Z,2.50
2023-03-13T06:58:00.839Z,2.50
2023-03-13T07:00:27.896Z,2.60
2023-03-13T07:02:55.609Z,2.70
2023-03-13T07:05:22.571Z,2.80
2023-03-13T07:07:49.502Z,2.80
2023-03-13T07:10:16.646Z,2.90
2023-03-13T07:12:44.671Z,3.00
2023-03-13T07:15:11.764Z,2.90
2023-03-13T07:17:38.782Z,2.90
2023-03-13T07:20:07.654Z,3.00
2023-03-13T07:22:34.719Z,3.00
2023-03-13T07:25:01.645Z,3.10
2023-03-13T07:27:28.665Z,3.20
2023-03-13T07:29:55.589Z,3.10
2023-03-13T07:32:22.868Z,3.20
2023-03-13T07:34:49.804Z,3.40
2023-03-13T07:37:17.537Z,3.60
2023-03-13T07:39:44.562Z,3.70
2023-03-13T07:42:12.577Z,3.90
2023-03-13T07:44:39.526Z,4.00
2023-03-13T07:47:07.033Z,4.20
2023-03-13T07:49:39.407Z,4.20
2023-03-13T07:52:06.394Z,4.20
2023-03-13T07:54:33.305Z,4.30
2023-03-13T07:57:02.106Z,4.40
2023-03-13T07:59:29.068Z,4.60
2023-03-13T08:01:56.178Z,4.60
2023-03-13T08:04:23.165Z,4.70
2023-03-13T08:06:51.786Z,5.00
2023-03-13T08:09:18.711Z,4.80
2023-03-13T08:11:45.871Z,5.00
2023-03-13T08:14:13.114Z,5.00
2023-03-13T08:16:40.092Z,5.10
2023-03-13T08:19:07.161Z,5.00
2023-03-13T08:21:36.319Z,5.10
2023-03-13T08:24:07.173Z,5.30
2023-03-13T08:26:36.514Z,5.20
2023-03-13T08:29:09.769Z,5.20
2023-03-13T08:31:52.641Z,5.30
2023-03-13T08:34:19.975Z,5.30
2023-03-13T08:36:47.406Z,5.40
2023-03-13T08:39:19.421Z,5.60
2023-03-13T08:41:47.197Z,5.50
2023-03-13T08:44:16.847Z,5.70
2023-03-13T08:46:44.696Z,5.80
2023-03-13T08:49:12.708Z,5.90
2023-03-13T08:51:40.409Z,6.00
2023-03-13T08:54:07.483Z,5.90
2023-03-13T08:56:35.204Z,6.00
2023-03-13T08:59:03.846Z,5.90
2023-03-13T09:01:33.137Z,5.80
2023-03-13T09:04:03.997Z,5.80
2023-03-13T09:06:31.962Z,5.70
2023-03-13T09:08:58.922Z,5.60
2023-03-13T09:11:26.184Z,5.80
2023-03-13T09:13:55.318Z,5.80
2023-03-13T09:16:24.058Z,5.80
2023-03-13T09:18:52.789Z,5.80
2023-03-13T09:21:46.821Z,5.90
2023-03-13T09:24:13.758Z,5.90
2023-03-13T09:26:46.496Z,6.10
2023-03-13T09:29:18.843Z,6.10
2023-03-13T09:31:45.856Z,6.00
2023-03-13T09:34:13.030Z,6.00
2023-03-13T09:36:40.188Z,6.00
2023-03-13T09:39:07.250Z,6.00
2023-03-13T09:42:00.376Z,6.10
2023-03-13T09:44:31.313Z,6.20
2023-03-13T09:47:20.418Z,6.20
2023-03-13T09:49:54.443Z,6.30
2023-03-13T09:52:27.218Z,6.30
2023-03-13T09:55:05.431Z,6.50
2023-03-13T09:57:38.268Z,6.60
2023-03-13T10:00:23.876Z,6.80
2023-03-13T10:03:14.097Z,6.70
2023-03-13T10:05:48.594Z,6.60
2023-03-13T10:08:25.891Z,6.70
2023-03-13T10:11:08.201Z,6.50
2023-03-13T10:13:41.579Z,6.40
2023-03-13T10:16:11.685Z,6.30
2023-03-13T10:18:39.351Z,6.20
2023-03-13T10:21:19.727Z,6.10
2023-03-13T10:24:00.492Z,6.00
2023-03-13T10:26:34.296Z,5.90
2023-03-13T10:29:22.950Z,5.70
2023-03-13T10:32:02.312Z,5.60
2023-03-13T10:34:55.824Z,5.60
2023-03-13T10:37:28.834Z,5.60
2023-03-13T10:40:23.213Z,5.50
2023-03-13T10:42:53.183Z,5.50
2023-03-13T10:45:25.124Z,5.50
2023-03-13T10:47:57.079Z,5.40
2023-03-13T10:50:26.793Z,5.40
2023-03-13T10:52:55.230Z,5.40
2023-03-13T10:55:25.523Z,5.40
2023-03-13T10:58:00.050Z,5.50
2023-03-13T11:00:36.012Z,5.40
2023-03-13T11:03:07.715Z,5.40
2023-03-13T11:05:40.981Z,5.30
2023-03-13T11:08:21.135Z,5.40
2023-03-13T11:11:00.978Z,5.50
2023-03-13T11:13:36.591Z,5.40
2023-03-13T11:16:28.930Z,5.50
2023-03-13T11:19:41.380Z,5.40
2023-03-13T11:22:14.644Z,5.40
2023-03-13T11:25:00.486Z,5.50
2023-03-13T11:27:30.474Z,5.50
2023-03-13T11:30:22.953Z,5.40
2023-03-13T11:32:56.551Z,5.50
2023-03-13T11:36:01.628Z,5.60
2023-03-13T11:38:34.384Z,5.60
2023-03-13T11:41:38.722Z,5.50
2023-03-13T11:44:22.177Z,5.40
2023-03-13T11:47:01.387Z,5.30
2023-03-13T11:49:38.537Z,5.40
2023-03-13T11:52:30.445Z,5.50
2023-03-13T11:55:18.920Z,5.50
2023-03-13T11:58:13.762Z,5.50
2023-03-13T12:00:57.680Z,5.50
2023-03-13T12:03:53.939Z,5.50
2023-03-13T12:06:42.174Z,5.50
2023-03-13T12:09:28.157Z,5.50
2023-03-13T12:12:04.772Z,5.50
2023-03-13T12:14:39.751Z,5.60
2023-03-13T12:17:21.139Z,5.60
2023-03-13T12:20:17.073Z,5.60
2023-03-13T12:23:07.061Z,5.60
2023-03-13T12:26:04.704Z,5.70
2023-03-13T12:29:08.305Z,5.70
2023-03-13T12:32:04.727Z,5.70
2023-03-13T12:34:47.977Z,5.70
2023-03-13T12:37:26.330Z,5.80
2023-03-13T12:40:01.356Z,5.70
2023-03-13T12:42:50.126Z,5.80
2023-03-13T12:45:24.377Z,5.80
2023-03-13T12:48:26.463Z,5.80
2023-03-13T12:51:11.957Z,5.80
2023-03-13T12:53:53.460Z,5.80
2023-03-13T12:56:44.153Z,5.80
2023-03-13T12:59:22.888Z,5.80
2023-03-13T13:01:53.789Z,5.90
2023-03-13T13:04:22.667Z,6.00
2023-03-13T13:07:03.376Z,6.00
2023-03-13T13:09:33.391Z,6.00
2023-03-13T13:12:04.874Z,6.00
2023-03-13T13:14:31.796Z,6.10
2023-03-13T13:17:24.286Z,6.10
2023-03-13T13:19:51.655Z,6.20
2023-03-13T13:22:39.678Z,6.10
2023-03-13T13:25:29.652Z,6.20
2023-03-13T13:27:58.996Z,6.20
2023-03-13T13:30:32.351Z,6.20
2023-03-13T13:33:27.903Z,6.20
2023-03-13T13:36:10.375Z,6.30
2023-03-13T13:38:40.398Z,6.20
2023-03-13T13:41:10.457Z,6.30
2023-03-13T13:43:45.745Z,6.30
2023-03-13T13:46:33.472Z,6.40
2023-03-13T13:49:06.783Z,6.40
2023-03-13T13:51:37.967Z,6.50
2023-03-13T13:54:36.830Z,6.60
2023-03-13T13:57:25.744Z,6.60
2023-03-13T13:59:54.727Z,6.70
2023-03-13T14:02:34.303Z,6.80
2023-03-13T14:05:15.691Z,6.80
2023-03-13T14:07:55.724Z,6.90
2023-03-13T14:10:43.788Z,7.00
2023-03-13T14:13:13.158Z,7.00
2023-03-13T14:15:44.324Z,7.10
2023-03-13T14:18:30.263Z,7.10
2023-03-13T14:21:15.483Z,7.20
2023-03-13T14:23:45.231Z,7.20
2023-03-13T14:26:17.989Z,7.20
2023-03-13T14:28:49.002Z,7.30
2023-03-13T14:31:28.608Z,7.30
2023-03-13T14:34:02.247Z,7.30
2023-03-13T14:36:29.381Z,7.30
2023-03-13T14:38:58.945Z,7.20
2023-03-13T14:41:40.678Z,7.30
2023-03-13T14:44:15.908Z,7.40
2023-03-13T14:46:45.060Z,7.40
2023-03-13T14:49:24.464Z,7.40
2023-03-13T14:52:01.723Z,7.40
2023-03-13T14:54:35.789Z,7.50
2023-03-13T14:57:18.124Z,7.50
2023-03-13T14:59:45.168Z,7.50
2023-03-13T15:02:32.460Z,7.50
2023-03-13T15:05:06.549Z,7.60
2023-03-13T15:07:48.475Z,7.70
2023-03-13T15:10:31.303Z,7.60
2023-03-13T15:12:58.753Z,7.60
2023-03-13T15:15:25.924Z,7.60
2023-03-13T15:17:52.991Z,7.50
2023-03-13T15:20:21.094Z,7.50
2023-03-13T15:22:48.024Z,7.50
2023-03-13T15:25:23.031Z,7.60
2023-03-13T15:27:50.589Z,7.50
2023-03-13T15:30:19.832Z,7.60
2023-03-13T15:32:47.239Z,7.60
2023-03-13T15:35:31.294Z,7.60
2023-03-13T15:38:00.390Z,7.60
2023-03-13T15:40:28.681Z,7.60
2023-03-13T15:42:56.022Z,7.60
2023-03-13T15:45:23.505Z,7.60
2023-03-13T15:47:50.514Z,7.70
2023-03-13T15:50:20.349Z,7.70
2023-03-13T15:52:47.465Z,7.70
2023-03-13T15:55:14.953Z,7.70
2023-03-13T15:57:47.314Z,7.70
2023-03-13T16:00:27.182Z,7.60
2023-03-13T16:02:54.167Z,7.60
2023-03-13T16:05:21.077Z,7.70
2023-03-13T16:07:48.030Z,7.70
2023-03-13T16:10:20.141Z,7.70
2023-03-13T16:12:47.183Z,7.70
2023-03-13T16:15:14.152Z,7.70
2023-03-13T16:17:41.530Z,7.80
2023-03-13T16:20:18.295Z,7.80
2023-03-13T16:22:45.291Z,7.70
2023-03-13T16:25:13.553Z,7.80
2023-03-13T16:27:42.038Z,7.80
2023-03-13T16:30:18.860Z,7.80
2023-03-13T16:32:46.660Z,7.80
2023-03-13T16:35:14.147Z,7.80
2023-03-13T16:37:41.229Z,7.90
2023-03-13T16:40:30.767Z,7.80
2023-03-13T16:42:57.976Z,7.70
2023-03-13T16:45:25.217Z,7.80
2023-03-13T16:47:52.324Z,7.70
2023-03-13T16:50:27.205Z,7.60
2023-03-13T16:52:54.617Z,7.50
2023-03-13T16:55:24.748Z,7.60
2023-03-13T16:57:52.644Z,7.70
2023-03-13T17:00:21.803Z,7.70
2023-03-13T17:02:49.500Z,7.80
2023-03-13T17:05:17.591Z,7.70
2023-03-13T17:07:46.018Z,7.70
2023-03-13T17:14:00.131Z,7.70
2023-03-13T17:16:35.880Z,8.00
2023-03-13T17:19:03.929Z,8.00
2023-03-13T17:21:35.102Z,7.90
2023-03-13T17:24:02.431Z,8.00
2023-03-13T17:26:36.906Z,8.00
2023-03-13T17:29:04.500Z,8.00
2023-03-13T17:31:37.322Z,8.00
2023-03-13T17:34:08.504Z,8.00
2023-03-13T17:36:36.647Z,7.90
2023-03-13T17:39:06.761Z,8.00
2023-03-13T17:41:35.147Z,8.00
2023-03-13T17:44:03.961Z,8.10
2023-03-13T17:46:46.798Z,8.10
2023-03-13T17:49:16.539Z,8.10
2023-03-13T17:51:46.259Z,8.20
2023-03-13T17:54:15.609Z,8.30
2023-03-13T17:56:43.930Z,8.30
2023-03-13T17:59:13.845Z,8.40
2023-03-13T18:01:41.076Z,8.30
2023-03-13T18:04:09.208Z,8.20
2023-03-13T18:06:47.466Z,8.20
2023-03-13T18:09:19.439Z,8.20
2023-03-13T18:11:47.099Z,8.30
2023-03-13T18:14:14.549Z,8.30
2023-03-13T18:16:47.834Z,8.40
2023-03-13T18:19:19.979Z,8.50
2023-03-13T18:21:50.349Z,8.40
2023-03-13T18:24:17.971Z,8.50
2023-03-13T18:26:46.326Z,8.60
2023-03-13T18:29:19.123Z,8.60
2023-03-13T18:31:46.149Z,8.70
2023-03-13T18:34:13.255Z,8.70
2023-03-13T18:36:40.499Z,8.70
2023-03-13T18:39:07.460Z,8.80
2023-03-13T18:41:34.784Z,8.80
2023-03-13T18:44:01.924Z,8.70
2023-03-13T18:46:31.870Z,8.60
2023-03-13T18:48:59.126Z,8.60
2023-03-13T18:51:27.420Z,8.70
2023-03-13T18:53:55.240Z,8.80
2023-03-13T18:56:28.521Z,8.70
2023-03-13T18:58:56.307Z,8.80
2023-03-13T19:01:25.672Z,8.80
2023-03-13T19:03:52.936Z,8.90
2023-03-13T19:06:34.361Z,8.90
2023-03-13T19:09:37.873Z,9.00
2023-03-13T19:11:59.220Z,9.00
2023-03-13T19:14:26.199Z,9.10
2023-03-13T19:16:56.126Z,9.10
2023-03-13T19:19:24.511Z,9.00
2023-03-13T19:21:56.521Z,9.20
2023-03-13T19:24:26.707Z,9.10
2023-03-13T19:26:58.937Z,9.20
2023-03-13T19:29:28.652Z,9.20
2023-03-13T19:31:56.053Z,9.20
2023-03-13T19:34:23.126Z,9.20
2023-03-13T19:36:50.624Z,9.10
2023-03-13T19:39:20.673Z,9.30
2023-03-13T19:41:48.521Z,9.50
2023-03-13T19:44:16.731Z,9.40
2023-03-13T19:46:44.011Z,9.50
2023-03-13T19:49:13.576Z,9.40
2023-03-13T19:51:41.006Z,9.40
2023-03-13T19:54:10.863Z,9.40
2023-03-13T19:56:43.551Z,9.30
2023-03-13T19:59:16.584Z,9.30
2023-03-13T20:01:44.338Z,9.20
2023-03-13T20:04:12.246Z,9.10
2023-03-13T20:06:41.303Z,9.20
2023-03-13T20:09:15.107Z,9.20
2023-03-13T20:11:42.812Z,9.10
2023-03-13T20:14:10.557Z,9.10
2023-03-13T20:16:37.928Z,9.20
2023-03-13T20:19:05.859Z,9.20
2023-03-13T20:21:35.476Z,9.20
2023-03-13T20:24:03.027Z,9.20
2023-03-13T20:26:30.198Z,9.30
2023-03-13T20:28:57.903Z,9.40
2023-03-13T20:35:18.180Z,9.40
2023-03-13T20:37:45.325Z,9.40
2023-03-13T20:40:12.846Z,9.30
2023-03-13T20:42:39.802Z,9.40
2023-03-13T20:45:11.017Z,9.40
2023-03-13T20:47:37.928Z,9.50
2023-03-13T20:50:05.201Z,9.50
2023-03-13T20:56:19.124Z,9.50
2023-03-13T20:58:46.097Z,9.50
2023-03-13T21:01:13.513Z,9.70
2023-03-13T21:03:40.495Z,9.60
2023-03-13T21:06:15.150Z,9.60
2023-03-13T21:08:42.720Z,9.60
2023-03-13T21:11:18.616Z,9.60
2023-03-13T21:13:46.092Z,9.60
2023-03-13T21:16:13.852Z,9.60
2023-03-13T21:18:41.171Z,9.60
2023-03-13T21:21:10.633Z,9.50
2023-03-13T21:23:38.114Z,9.50
2023-03-13T21:26:05.386Z,9.50
2023-03-13T21:28:32.957Z,9.60
2023-03-13T21:31:08.911Z,9.60
2023-03-13T21:33:36.182Z,9.50
2023-03-13T21:36:03.292Z,9.50
2023-03-13T21:42:18.171Z,9.40
2023-03-13T21:44:45.765Z,9.40
2023-03-13T21:47:12.727Z,9.50
2023-03-13T21:49:39.743Z,9.40
2023-03-13T21:52:06.700Z,9.60
2023-03-13T21:54:33.602Z,9.60
2023-03-13T21:57:00.541Z,9.60
2023-03-13T21:59:29.643Z,9.60
2023-03-13T22:01:56.606Z,9.50
2023-03-13T22:04:23.536Z,9.50
2023-03-13T22:06:50.510Z,9.50
2023-03-13T22:09:17.433Z,9.70
2023-03-13T22:11:44.400Z,9.50
2023-03-13T22:14:11.570Z,9.60
2023-03-13T22:16:38.476Z,9.60
2023-03-13T22:19:05.566Z,9.70
2023-03-13T22:21:32.523Z,9.60
2023-03-13T22:23:59.510Z,9.60
2023-03-13T22:26:26.463Z,9.60
2023-03-13T22:28:53.372Z,9.80
2023-03-13T22:31:20.393Z,9.80
2023-03-13T22:33:47.342Z,9.90
2023-03-13T22:36:14.337Z,9.70
2023-03-13T22:38:41.380Z,9.70
2023-03-13T22:41:11.569Z,9.70
2023-03-13T22:43:38.483Z,9.70
2023-03-13T22:46:07.226Z,9.80
2023-03-13T22:48:34.108Z,9.80
2023-03-13T22:51:08.681Z,9.80
2023-03-13T22:53:37.792Z,9.80
2023-03-13T22:56:05.296Z,9.70
2023-03-13T22:58:34.084Z,9.70
2023-03-13T23:01:01.225Z,9.70
2023-03-13T23:03:28.172Z,9.80
2023-03-13T23:05:55.039Z,9.80
2023-03-13T23:08:22.998Z,9.70
2023-03-13T23:10:50.252Z,9.70
2023-03-13T23:13:17.190Z,9.80
2023-03-13T23:15:59.221Z,10.00
2023-03-13T23:18:27.734Z,10.00
2023-03-13T23:20:54.813Z,9.90
2023-03-13T23:23:22.007Z,10.10
2023-03-13T23:25:48.963Z,9.90
2023-03-13T23:28:16.187Z,9.80
2023-03-13T23:30:43.077Z,9.80
2023-03-13T23:33:09.995Z,9.80
2023-03-13T23:35:38.089Z,10.00
2023-03-13T23:38:05.190Z,9.80
2023-03-13T23:40:32.793Z,9.90
2023-03-13T23:42:59.822Z,9.80
2023-03-13T23:45:26.818Z,9.80
2023-03-13T23:47:54.347Z,9.80
2023-03-13T23:50:22.168Z,9.80
2023-03-13T23:52:49.162Z,9.80
2023-03-13T23:55:16.345Z,10.10
2023-03-13T23:57:43.387Z,10.10
